createdAt,value
2022-10-08T00:02:00.985Z,79.97
2022-10-08T00:04:24.660Z,79.73
2022-10-08T00:06:48.230Z,80.24
2022-10-08T00:09:11.768Z,80.82
2022-10-08T00:11:39.321Z,80.73
2022-10-08T00:14:03.820Z,80.63
2022-10-08T00:16:30.025Z,80.82
2022-10-08T00:18:55.923Z,80.87
2022-10-08T00:21:23.119Z,83.17
2022-10-08T00:23:49.217Z,81.57
2022-10-08T00:26:12.894Z,82.15
2022-10-08T00:28:39.531Z,81.08
2022-10-08T00:31:08.308Z,82.70
2022-10-08T00:33:31.906Z,80.75
2022-10-08T00:35:56.772Z,82.12
2022-10-08T00:38:20.393Z,81.98
2022-10-08T00:40:44.405Z,81.89
2022-10-08T00:43:09.169Z,81.55
2022-10-08T00:45:34.144Z,81.92
2022-10-08T00:47:57.984Z,81.08
2022-10-08T00:50:26.140Z,82.67
2022-10-08T00:52:52.843Z,81.03
2022-10-08T00:55:20.267Z,81.70
2022-10-08T00:57:44.824Z,80.64
2022-10-08T01:00:12.915Z,81.17
2022-10-08T01:02:38.038Z,80.27
2022-10-08T01:05:02.167Z,82.45
2022-10-08T01:07:33.104Z,83.17
2022-10-08T01:10:04.586Z,81.51
2022-10-08T01:12:38.583Z,82.73
2022-10-08T01:15:09.568Z,84.48
2022-10-08T01:17:42.392Z,81.61
2022-10-08T01:20:31.698Z,81.92
2022-10-08T01:23:29.663Z,82.88
2022-10-08T01:25:58.720Z,81.52
2022-10-08T01:28:28.155Z,82.61
2022-10-08T01:30:57.125Z,83.11
2022-10-08T01:33:26.935Z,82.04
2022-10-08T01:35:57.304Z,81.51
2022-10-08T01:38:23.421Z,82.29
2022-10-08T01:40:49.746Z,83.40
2022-10-08T01:43:17.116Z,84.40
2022-10-08T01:45:47.225Z,84.67
2022-10-08T01:48:16.338Z,84.20
2022-10-08T01:50:50.370Z,82.54
2022-10-08T01:53:19.315Z,82.51
2022-10-08T01:55:47.484Z,82.64
2022-10-08T01:58:17.385Z,81.84
2022-10-08T02:00:43.249Z,80.72
2022-10-08T02:03:06.797Z,82.45
2022-10-08T02:05:34.846Z,82.10
2022-10-08T02:07:58.447Z,81.77
2022-10-08T02:10:25.824Z,85.17
2022-10-08T02:12:49.754Z,85.00
2022-10-08T02:15:19.007Z,85.07
2022-10-08T02:17:56.674Z,82.93
2022-10-08T02:20:27.148Z,83.56
2022-10-08T02:22:59.324Z,81.52
2022-10-08T02:25:30.868Z,84.22
2022-10-08T02:28:05.003Z,84.08
2022-10-08T02:30:38.616Z,83.22
2022-10-08T02:33:07.140Z,85.11
2022-10-08T02:35:39.483Z,84.56
2022-10-08T02:38:08.539Z,85.63
2022-10-08T02:40:34.254Z,84.36
2022-10-08T02:43:04.066Z,83.41
2022-10-08T02:45:33.457Z,84.57
2022-10-08T02:48:05.241Z,85.49
2022-10-08T02:50:30.489Z,86.08
2022-10-08T02:52:54.638Z,86.06
2022-10-08T02:55:30.383Z,85.72
2022-10-08T02:58:02.392Z,84.93
2022-10-08T03:00:29.477Z,83.99
2022-10-08T03:03:03.622Z,83.69
2022-10-08T03:05:29.912Z,85.02
2022-10-08T03:07:56.055Z,83.91
2022-10-08T03:10:22.020Z,85.45
2022-10-08T03:12:45.928Z,85.14
2022-10-08T03:15:12.158Z,87.29
2022-10-08T03:17:40.221Z,85.55
2022-10-08T03:20:04.304Z,82.77
2022-10-08T03:22:29.683Z,83.76
2022-10-08T03:24:56.714Z,84.71
2022-10-08T03:27:20.517Z,83.07
2022-10-08T03:29:44.099Z,84.17
2022-10-08T03:32:07.773Z,84.53
2022-10-08T03:34:31.383Z,87.10
2022-10-08T03:36:54.890Z,86.39
2022-10-08T03:39:20.161Z,86.76
2022-10-08T03:41:43.715Z,88.14
2022-10-08T03:44:10.780Z,89.23
2022-10-08T03:46:34.465Z,90.46
2022-10-08T03:48:58.072Z,90.97
2022-10-08T03:51:23.737Z,90.10
2022-10-08T03:53:47.898Z,91.54
2022-10-08T03:56:15.319Z,92.68
2022-10-08T03:58:39.107Z,94.04
2022-10-08T04:01:05.612Z,92.13
2022-10-08T04:03:30.433Z,91.93
2022-10-08T04:05:54.075Z,91.97
2022-10-08T04:08:17.765Z,93.58
2022-10-08T04:10:41.262Z,95.10
2022-10-08T04:13:06.291Z,93.83
2022-10-08T04:15:29.843Z,96.08
2022-10-08T04:17:53.483Z,95.84
2022-10-08T04:20:17.227Z,94.05
2022-10-08T04:22:40.784Z,93.09
2022-10-08T04:25:04.597Z,92.04
2022-10-08T04:27:28.539Z,91.18
2022-10-08T04:29:53.443Z,91.67
2022-10-08T04:32:17.528Z,90.11
2022-10-08T04:34:41.090Z,89.26
2022-10-08T04:37:04.709Z,90.84
2022-10-08T04:39:28.307Z,88.91
2022-10-08T04:41:51.887Z,88.70
2022-10-08T04:44:15.408Z,88.07
2022-10-08T04:46:40.503Z,89.21
2022-10-08T04:49:04.092Z,88.67
2022-10-08T04:51:28.758Z,87.92
2022-10-08T04:53:53.359Z,88.64
2022-10-08T04:56:19.379Z,88.06
2022-10-08T04:58:43.390Z,85.98
2022-10-08T05:01:08.589Z,86.06
2022-10-08T05:03:37.181Z,85.55
2022-10-08T05:06:00.770Z,85.38
2022-10-08T05:08:24.295Z,85.39
2022-10-08T05:10:50.620Z,85.81
2022-10-08T05:13:14.176Z,84.59
2022-10-08T05:15:37.847Z,83.72
2022-10-08T05:18:01.435Z,83.48
2022-10-08T05:20:26.485Z,83.98
2022-10-08T05:22:50.224Z,83.93
2022-10-08T05:25:13.994Z,82.94
2022-10-08T05:27:37.531Z,84.35
2022-10-08T05:30:02.410Z,84.03
2022-10-08T05:32:25.938Z,84.75
2022-10-08T05:34:49.557Z,84.22
2022-10-08T05:37:14.462Z,84.99
2022-10-08T05:39:38.103Z,84.17
2022-10-08T05:42:01.618Z,85.71
2022-10-08T05:44:25.187Z,85.65
2022-10-08T05:46:48.748Z,84.75
2022-10-08T05:49:20.852Z,86.11
2022-10-08T05:51:44.419Z,85.13
2022-10-08T05:54:09.363Z,88.30
2022-10-08T05:56:32.919Z,86.25
2022-10-08T05:58:56.967Z,86.53
2022-10-08T06:01:24.126Z,86.67
2022-10-08T06:03:50.592Z,85.96
2022-10-08T06:06:14.150Z,87.19
2022-10-08T06:08:39.000Z,87.47
2022-10-08T06:11:05.080Z,89.26
2022-10-08T06:13:29.047Z,90.24
2022-10-08T06:16:00.787Z,89.78
2022-10-08T06:18:25.242Z,93.43
2022-10-08T06:20:48.791Z,94.34
2022-10-08T06:23:12.387Z,92.14
2022-10-08T06:25:38.474Z,92.67
2022-10-08T06:28:03.570Z,95.64
2022-10-08T06:30:27.177Z,96.76
2022-10-08T06:32:50.792Z,96.32
2022-10-08T06:35:14.440Z,95.37
2022-10-08T06:37:38.034Z,94.72
2022-10-08T06:40:01.558Z,93.56
2022-10-08T06:42:25.211Z,92.24
2022-10-08T06:44:50.167Z,91.11
2022-10-08T06:47:13.760Z,89.32
2022-10-08T06:49:37.325Z,87.97
2022-10-08T06:52:00.931Z,87.91
2022-10-08T06:54:26.240Z,87.55
2022-10-08T06:56:49.814Z,86.33
2022-10-08T06:59:13.487Z,86.50
2022-10-08T07:01:38.785Z,87.09
2022-10-08T07:04:03.089Z,86.30
2022-10-08T07:06:27.341Z,86.52
2022-10-08T07:08:54.934Z,86.27
2022-10-08T07:11:20.009Z,85.67
2022-10-08T07:13:43.959Z,85.22
2022-10-08T07:16:09.991Z,84.79
2022-10-08T07:18:36.245Z,84.05
2022-10-08T07:20:59.945Z,84.19
2022-10-08T07:23:23.559Z,83.71
2022-10-08T07:25:58.129Z,84.17
2022-10-08T07:28:21.709Z,82.73
2022-10-08T07:30:45.266Z,82.58
2022-10-08T07:33:08.823Z,81.83
2022-10-08T07:35:33.816Z,81.49
2022-10-08T07:37:57.452Z,80.67
2022-10-08T07:40:21.023Z,80.48
2022-10-08T07:42:45.038Z,80.32
2022-10-08T07:45:10.285Z,79.20
2022-10-08T07:47:33.868Z,78.60
2022-10-08T07:49:57.443Z,79.23
2022-10-08T07:52:22.751Z,80.05
2022-10-08T07:54:46.369Z,77.86
2022-10-08T07:57:09.973Z,79.51
2022-10-08T07:59:34.232Z,78.57
2022-10-08T08:01:57.826Z,76.72
2022-10-08T08:04:21.464Z,77.20
2022-10-08T08:06:47.809Z,75.06
2022-10-08T08:09:14.386Z,73.95
2022-10-08T08:11:38.158Z,73.05
2022-10-08T08:14:01.696Z,71.67
2022-10-08T08:16:29.270Z,72.48
2022-10-08T08:18:55.341Z,72.22
2022-10-08T08:21:21.607Z,71.55
2022-10-08T08:23:48.319Z,71.87
2022-10-08T08:26:15.407Z,69.81
2022-10-08T08:28:39.225Z,70.45
2022-10-08T08:31:10.848Z,69.29
2022-10-08T08:33:34.485Z,67.83
2022-10-08T08:35:58.008Z,68.04
2022-10-08T08:38:21.576Z,68.19
2022-10-08T08:40:45.123Z,68.93
2022-10-08T08:43:10.251Z,67.46
2022-10-08T08:45:52.113Z,67.97
2022-10-08T08:48:20.960Z,69.12
2022-10-08T08:50:48.746Z,68.63
2022-10-08T08:53:12.986Z,68.21
2022-10-08T08:55:40.555Z,67.82
2022-10-08T08:58:19.499Z,67.60
2022-10-08T09:00:47.352Z,67.99
2022-10-08T09:03:21.515Z,68.71
2022-10-08T09:05:49.035Z,68.75
2022-10-08T09:08:18.027Z,68.02
2022-10-08T09:10:47.792Z,69.52
2022-10-08T09:13:19.387Z,70.46
2022-10-08T09:15:44.276Z,69.02
2022-10-08T09:18:08.106Z,68.51
2022-10-08T09:20:36.674Z,67.56
2022-10-08T09:23:03.150Z,67.43
2022-10-08T09:25:31.194Z,68.11
2022-10-08T09:27:57.855Z,67.08
2022-10-08T09:30:37.451Z,68.03
2022-10-08T09:33:04.639Z,66.46
2022-10-08T09:35:28.612Z,66.67
2022-10-08T09:37:53.283Z,67.20
2022-10-08T09:40:23.683Z,67.30
2022-10-08T09:43:05.941Z,65.83
2022-10-08T09:45:40.765Z,66.37
2022-10-08T09:48:23.549Z,66.62
2022-10-08T09:51:14.585Z,65.72
2022-10-08T09:53:44.789Z,67.63
2022-10-08T09:56:10.207Z,67.68
2022-10-08T09:58:36.872Z,66.31
2022-10-08T10:01:07.014Z,67.06
2022-10-08T10:03:31.724Z,68.07
2022-10-08T10:05:58.084Z,67.49
2022-10-08T10:08:48.456Z,66.96
2022-10-08T10:11:16.172Z,66.58
2022-10-08T10:13:42.440Z,66.22
2022-10-08T10:16:13.747Z,65.26
2022-10-08T10:18:48.239Z,66.21
2022-10-08T10:21:20.267Z,67.58
2022-10-08T10:23:51.535Z,65.84
2022-10-08T10:26:19.938Z,66.98
2022-10-08T10:28:47.462Z,65.47
2022-10-08T10:31:17.601Z,66.91
2022-10-08T10:33:51.172Z,65.71
2022-10-08T10:36:17.563Z,66.30
2022-10-08T10:38:48.896Z,67.34
2022-10-08T10:41:20.194Z,66.99
2022-10-08T10:43:49.318Z,67.12
2022-10-08T10:46:27.927Z,66.58
2022-10-08T10:48:51.921Z,68.32
2022-10-08T10:51:50.253Z,66.59
2022-10-08T10:54:38.152Z,67.70
2022-10-08T10:57:09.554Z,68.39
2022-10-08T10:59:47.392Z,67.89
2022-10-08T11:02:22.321Z,67.28
2022-10-08T11:05:01.573Z,67.80
2022-10-08T11:07:46.784Z,68.31
2022-10-08T11:10:28.423Z,68.61
2022-10-08T11:13:01.134Z,67.47
2022-10-08T11:15:33.601Z,66.79
2022-10-08T11:18:24.239Z,68.57
2022-10-08T11:21:09.879Z,66.87
2022-10-08T11:24:00.590Z,66.55
2022-10-08T11:26:32.581Z,67.09
2022-10-08T11:29:09.761Z,68.73
2022-10-08T11:31:42.813Z,67.26
2022-10-08T11:34:22.023Z,66.54
2022-10-08T11:36:54.110Z,69.56
2022-10-08T11:39:22.903Z,68.02
2022-10-08T11:41:55.313Z,68.13
2022-10-08T11:44:20.166Z,66.55
2022-10-08T11:46:43.706Z,68.26
2022-10-08T11:49:51.176Z,67.02
2022-10-08T11:52:16.419Z,67.14
2022-10-08T11:54:41.898Z,67.38
2022-10-08T11:57:20.674Z,68.02
2022-10-08T11:59:47.700Z,67.56
2022-10-08T12:02:26.641Z,68.40
2022-10-08T12:04:54.055Z,67.38
2022-10-08T12:07:25.457Z,65.69
2022-10-08T12:10:27.327Z,66.66
2022-10-08T12:13:31.257Z,67.10
2022-10-08T12:16:05.101Z,66.56
2022-10-08T12:18:53.095Z,64.50
2022-10-08T12:21:57.892Z,63.23
2022-10-08T12:24:57.119Z,62.91
2022-10-08T12:27:30.626Z,64.14
2022-10-08T12:30:00.108Z,64.24
2022-10-08T12:32:25.181Z,64.99
2022-10-08T12:34:48.808Z,62.82
2022-10-08T12:37:30.843Z,64.08
2022-10-08T12:39:56.838Z,64.33
2022-10-08T12:42:24.223Z,62.19
2022-10-08T12:45:03.279Z,62.88
2022-10-08T12:47:39.781Z,61.71
2022-10-08T12:50:20.327Z,61.29
2022-10-08T12:52:45.771Z,60.24
2022-10-08T12:55:20.039Z,60.95
2022-10-08T12:57:44.856Z,61.78
2022-10-08T13:00:11.865Z,61.39
2022-10-08T13:02:38.974Z,58.90
2022-10-08T13:05:02.498Z,59.57
2022-10-08T13:07:28.566Z,59.30
2022-10-08T13:09:56.666Z,59.65
2022-10-08T13:12:20.245Z,59.92
2022-10-08T13:14:43.751Z,58.77
2022-10-08T13:17:30.248Z,59.21
2022-10-08T13:20:13.546Z,59.24
2022-10-08T13:22:37.204Z,58.39
2022-10-08T13:25:02.095Z,57.95
2022-10-08T13:27:28.226Z,58.51
2022-10-08T13:29:51.954Z,57.94
2022-10-08T13:32:22.667Z,58.06
2022-10-08T13:34:49.675Z,59.01
2022-10-08T13:37:17.731Z,58.91
2022-10-08T13:39:43.778Z,59.89
2022-10-08T13:42:11.924Z,59.87
2022-10-08T13:44:38.230Z,58.93
2022-10-08T13:47:03.864Z,59.33
2022-10-08T13:49:29.475Z,59.98
2022-10-08T13:51:53.643Z,60.58
2022-10-08T13:54:23.095Z,59.27
2022-10-08T13:56:46.663Z,59.92
2022-10-08T13:59:12.557Z,58.77
2022-10-08T14:01:36.221Z,59.43
2022-10-08T14:03:59.763Z,58.22
2022-10-08T14:06:23.960Z,59.34
2022-10-08T14:08:47.593Z,57.14
2022-10-08T14:11:12.210Z,56.98
2022-10-08T14:13:36.170Z,58.95
2022-10-08T14:16:01.220Z,58.63
2022-10-08T14:18:24.903Z,58.56
2022-10-08T14:20:51.719Z,58.28
2022-10-08T14:23:15.270Z,57.83
2022-10-08T14:25:38.819Z,57.35
2022-10-08T14:28:02.686Z,58.96
2022-10-08T14:30:26.934Z,60.81
2022-10-08T14:32:51.942Z,63.80
2022-10-08T14:35:17.046Z,66.53
2022-10-08T14:37:40.738Z,68.64
2022-10-08T14:40:05.087Z,69.04
2022-10-08T14:42:28.696Z,69.74
2022-10-08T14:44:53.348Z,71.08
2022-10-08T14:47:16.943Z,69.75
2022-10-08T14:49:41.924Z,68.52
2022-10-08T14:52:05.728Z,68.01
2022-10-08T14:54:29.427Z,67.56
2022-10-08T14:56:52.970Z,66.92
2022-10-08T14:59:16.549Z,66.42
2022-10-08T15:01:40.847Z,66.01
2022-10-08T15:04:04.554Z,62.41
2022-10-08T15:06:29.749Z,63.18
2022-10-08T15:08:53.380Z,60.92
2022-10-08T15:11:16.967Z,63.26
2022-10-08T15:13:40.637Z,62.53
2022-10-08T15:16:04.568Z,62.94
2022-10-08T15:18:32.358Z,62.03
2022-10-08T15:20:56.958Z,62.73
2022-10-08T15:23:21.870Z,62.48
2022-10-08T15:25:45.644Z,62.49
2022-10-08T15:28:09.416Z,61.38
2022-10-08T15:30:33.348Z,61.46
2022-10-08T15:32:57.137Z,62.84
2022-10-08T15:35:20.771Z,61.96
2022-10-08T15:37:44.473Z,61.17
2022-10-08T15:40:10.800Z,62.52
2022-10-08T15:42:34.404Z,62.77
2022-10-08T15:44:58.499Z,64.58
2022-10-08T15:47:22.113Z,63.91
2022-10-08T15:49:46.366Z,63.55
2022-10-08T15:52:14.260Z,64.47
2022-10-08T15:54:37.924Z,65.27
2022-10-08T15:57:02.930Z,65.88
2022-10-08T15:59:26.484Z,66.12
2022-10-08T16:01:50.025Z,66.84
2022-10-08T16:04:14.678Z,65.97
2022-10-08T16:06:38.243Z,66.91
2022-10-08T16:09:02.208Z,66.41
2022-10-08T16:11:29.046Z,67.54
2022-10-08T16:13:56.715Z,67.05
2022-10-08T16:16:21.284Z,68.53
2022-10-08T16:18:45.423Z,69.48
2022-10-08T16:21:09.294Z,68.80
2022-10-08T16:23:36.280Z,68.08
2022-10-08T16:26:00.907Z,68.01
2022-10-08T16:28:24.543Z,68.74
2022-10-08T16:30:49.583Z,68.31
2022-10-08T16:33:13.390Z,69.05
2022-10-08T16:35:37.763Z,68.80
2022-10-08T16:38:01.279Z,69.39
2022-10-08T16:40:24.853Z,69.18
2022-10-08T16:42:48.681Z,69.12
2022-10-08T16:45:12.698Z,68.82
2022-10-08T16:47:37.675Z,69.21
2022-10-08T16:50:01.291Z,70.22
2022-10-08T16:52:24.832Z,70.16
2022-10-08T16:54:54.566Z,68.95
2022-10-08T16:57:18.627Z,68.80
2022-10-08T16:59:42.205Z,69.26
2022-10-08T17:02:05.787Z,69.12
2022-10-08T17:04:35.465Z,69.75
2022-10-08T17:06:59.241Z,70.50
2022-10-08T17:09:23.045Z,70.13
2022-10-08T17:11:46.588Z,70.25
2022-10-08T17:14:11.786Z,70.52
2022-10-08T17:16:36.865Z,73.74
2022-10-08T17:19:02.080Z,71.67
2022-10-08T17:21:27.710Z,71.35
2022-10-08T17:23:51.670Z,71.41
2022-10-08T17:26:18.121Z,71.24
2022-10-08T17:28:44.237Z,72.62
2022-10-08T17:31:11.927Z,71.11
2022-10-08T17:33:36.666Z,72.18
2022-10-08T17:36:05.313Z,72.57
2022-10-08T17:38:30.607Z,72.21
2022-10-08T17:40:54.168Z,72.80
2022-10-08T17:43:17.715Z,73.18
2022-10-08T17:45:41.436Z,73.05
2022-10-08T17:48:05.231Z,72.78
2022-10-08T17:50:28.751Z,73.50
2022-10-08T17:52:52.382Z,73.52
2022-10-08T17:55:17.631Z,74.33
2022-10-08T17:57:41.171Z,75.32
2022-10-08T18:00:05.894Z,77.17
2022-10-08T18:02:32.457Z,77.35
2022-10-08T18:04:56.031Z,79.53
2022-10-08T18:07:19.628Z,79.21
2022-10-08T18:09:43.234Z,80.14
2022-10-08T18:12:08.570Z,81.41
2022-10-08T18:14:32.103Z,81.33
2022-10-08T18:16:56.754Z,83.41
2022-10-08T18:19:21.221Z,82.98
2022-10-08T18:21:45.017Z,82.33
2022-10-08T18:24:08.729Z,80.22
2022-10-08T18:26:34.888Z,81.14
2022-10-08T18:29:02.543Z,81.90
2022-10-08T18:31:28.911Z,81.23
2022-10-08T18:33:57.245Z,82.62
2022-10-08T18:36:23.555Z,81.31
2022-10-08T18:38:49.622Z,82.93
2022-10-08T18:41:15.943Z,81.92
2022-10-08T18:43:39.658Z,82.45
2022-10-08T18:46:06.134Z,81.19
2022-10-08T18:48:31.845Z,82.89
2022-10-08T18:50:55.570Z,83.28
2022-10-08T18:53:19.240Z,83.44
2022-10-08T18:55:50.688Z,81.72
2022-10-08T18:58:14.279Z,83.10
2022-10-08T19:00:39.085Z,84.22
2022-10-08T19:03:04.931Z,82.51
2022-10-08T19:05:28.696Z,83.30
2022-10-08T19:07:52.307Z,85.04
2022-10-08T19:10:15.960Z,84.16
2022-10-08T19:12:39.543Z,86.61
2022-10-08T19:15:03.062Z,86.98
2022-10-08T19:17:26.675Z,86.93
2022-10-08T19:19:51.856Z,84.13
2022-10-08T19:22:15.458Z,84.86
2022-10-08T19:24:41.201Z,83.75
2022-10-08T19:27:05.123Z,85.90
2022-10-08T19:29:33.695Z,85.75
2022-10-08T19:31:57.758Z,85.73
2022-10-08T19:34:24.663Z,86.05
2022-10-08T19:36:50.815Z,86.93
2022-10-08T19:39:17.130Z,87.35
2022-10-08T19:41:42.427Z,86.97
2022-10-08T19:44:06.695Z,86.40
2022-10-08T19:46:31.018Z,86.27
2022-10-08T19:48:57.211Z,86.26
2022-10-08T19:51:21.744Z,85.78
2022-10-08T19:53:46.922Z,84.85
2022-10-08T19:56:12.191Z,85.54
2022-10-08T19:58:36.199Z,86.45
2022-10-08T20:01:00.838Z,85.89
2022-10-08T20:03:24.371Z,86.46
2022-10-08T20:05:47.914Z,87.02
2022-10-08T20:08:11.447Z,84.59
2022-10-08T20:10:41.176Z,85.17
2022-10-08T20:13:04.731Z,83.53
2022-10-08T20:15:28.351Z,82.72
2022-10-08T20:17:51.914Z,83.19
2022-10-08T20:20:32.397Z,85.94
2022-10-08T20:22:57.087Z,85.25
2022-10-08T20:25:21.476Z,84.88
2022-10-08T20:27:46.448Z,86.15
2022-10-08T20:30:10.978Z,85.13
2022-10-08T20:32:34.564Z,84.69
2022-10-08T20:34:58.091Z,85.24
2022-10-08T20:37:21.672Z,84.43
2022-10-08T20:39:45.236Z,85.28
2022-10-08T20:42:08.845Z,85.03
2022-10-08T20:44:33.772Z,84.97
2022-10-08T20:47:00.336Z,85.54
2022-10-08T20:49:24.760Z,83.72
2022-10-08T20:51:48.432Z,86.00
2022-10-08T20:54:14.612Z,85.45
2022-10-08T20:56:40.626Z,84.05
2022-10-08T20:59:04.507Z,82.52
2022-10-08T21:01:32.272Z,83.75
2022-10-08T21:03:57.023Z,82.55
2022-10-08T21:06:23.730Z,83.67
2022-10-08T21:08:49.614Z,82.51
2022-10-08T21:11:15.703Z,82.31
2022-10-08T21:13:39.434Z,83.35
2022-10-08T21:16:04.475Z,82.96
2022-10-08T21:18:29.578Z,82.17
2022-10-08T21:20:53.766Z,83.64
2022-10-08T21:23:17.300Z,83.62
2022-10-08T21:25:40.917Z,84.83
2022-10-08T21:28:04.546Z,87.36
2022-10-08T21:30:28.175Z,85.26
2022-10-08T21:32:51.728Z,85.48
2022-10-08T21:35:16.991Z,83.98
2022-10-08T21:37:40.520Z,83.59
2022-10-08T21:40:04.672Z,83.81
2022-10-08T21:42:28.220Z,83.40
2022-10-08T21:44:52.048Z,84.16
2022-10-08T21:47:15.655Z,84.38
2022-10-08T21:49:39.265Z,83.76
2022-10-08T21:52:04.225Z,83.30
2022-10-08T21:54:27.863Z,84.00
2022-10-08T21:56:51.539Z,84.05
2022-10-08T21:59:16.892Z,85.11
2022-10-08T22:01:43.318Z,85.02
2022-10-08T22:04:10.492Z,85.09
2022-10-08T22:06:37.297Z,88.30
2022-10-08T22:09:02.665Z,87.70
2022-10-08T22:11:27.051Z,87.37
2022-10-08T22:13:51.283Z,87.91
2022-10-08T22:16:17.835Z,87.34
2022-10-08T22:18:41.847Z,86.15
2022-10-08T22:21:08.265Z,86.18
2022-10-08T22:23:32.015Z,85.38
2022-10-08T22:25:59.528Z,86.08
2022-10-08T22:28:24.151Z,85.98
2022-10-08T22:30:47.755Z,87.04
2022-10-08T22:33:11.319Z,85.97
2022-10-08T22:35:35.136Z,85.91
2022-10-08T22:37:58.727Z,85.79
2022-10-08T22:40:22.356Z,85.03
2022-10-08T22:42:47.592Z,84.11
2022-10-08T22:45:12.943Z,83.51
2022-10-08T22:47:36.552Z,86.33
2022-10-08T22:50:00.401Z,84.03
2022-10-08T22:52:24.135Z,84.51
2022-10-08T22:54:47.685Z,85.47
2022-10-08T22:57:11.278Z,85.74
2022-10-08T22:59:36.332Z,84.88
2022-10-08T23:01:59.943Z,85.11
2022-10-08T23:04:23.699Z,84.88
2022-10-08T23:06:47.276Z,83.93
2022-10-08T23:09:14.054Z,84.72
2022-10-08T23:11:37.664Z,86.50
2022-10-08T23:14:02.679Z,83.94
2022-10-08T23:16:29.934Z,85.91
2022-10-08T23:18:56.715Z,85.43
2022-10-08T23:21:20.282Z,84.65
2022-10-08T23:23:45.017Z,85.30
2022-10-08T23:26:10.158Z,84.46
2022-10-08T23:28:35.983Z,84.45
2022-10-08T23:31:07.371Z,83.64
2022-10-08T23:33:32.335Z,83.63
2022-10-08T23:35:57.019Z,84.64
2022-10-08T23:38:20.590Z,83.42
2022-10-08T23:40:44.108Z,84.17
2022-10-08T23:43:07.855Z,83.46
2022-10-08T23:45:31.387Z,85.13
2022-10-08T23:47:55.029Z,85.00
2022-10-08T23:50:20.122Z,83.34
2022-10-08T23:52:43.733Z,84.55
2022-10-08T23:55:08.247Z,84.04
2022-10-08T23:57:31.836Z,84.06
2022-10-08T23:59:55.343Z,85.49
